Time;durP1;ratioP1;P1;durP2;ratioP2;P2;SDS_P1;SDS_P2;PMS_P1;PMS_P2;Temp;Humidity;BMP_temperature;BMP_pressure;BME280_temperature;BME280_humidity;BME280_pressure;Samples;Min_cycle;Max_cycle;Signal;HPM_P1;HPM_P2
2024/02/25 00:02:14;;;;;;;1.63;1.53;;;;;;;5.63;100.00;95384.28;5033790;28;20315;-69
2024/02/25 00:04:42;;;;;;;2.10;1.70;;;;;;;5.81;100.00;95386.72;5034406;28;20494;-67
2024/02/25 00:07:08;;;;;;;4.50;1.77;;;;;;;5.63;100.00;95378.25;5034348;28;20211;-68
2024/02/25 00:09:35;;;;;;;2.60;1.70;;;;;;;5.42;100.00;95377.97;5033795;28;20223;-68
2024/02/25 00:12:01;;;;;;;2.87;1.80;;;;;;;5.32;100.00;95386.97;5036527;28;20563;-67
2024/02/25 00:14:29;;;;;;;3.43;1.50;;;;;;;5.42;100.00;95385.81;5036884;28;20223;-69
2024/02/25 00:16:56;;;;;;;1.40;1.30;;;;;;;5.32;100.00;95387.81;5036158;28;20221;-68
2024/02/25 00:19:22;;;;;;;2.00;1.40;;;;;;;5.34;100.00;95379.81;5036217;28;20208;-68
2024/02/25 00:21:50;;;;;;;1.30;1.20;;;;;;;5.41;100.00;95386.81;5035589;28;20594;-69
2024/02/25 00:24:17;;;;;;;1.90;1.50;;;;;;;5.40;100.00;95394.78;5035656;28;20212;-69
2024/02/25 00:26:43;;;;;;;2.70;1.60;;;;;;;5.41;100.00;95386.81;5035835;28;20595;-68
2024/02/25 00:29:14;;;;;;;2.13;1.40;;;;;;;5.36;100.00;95396.94;5035868;28;20208;-67
2024/02/25 00:31:41;;;;;;;4.13;1.80;;;;;;;5.40;100.00;95390.41;5034859;28;20209;-66
2024/02/25 00:34:08;;;;;;;1.50;1.30;;;;;;;5.41;100.00;95392.03;5034091;28;20204;-66
2024/02/25 00:36:34;;;;;;;3.10;1.60;;;;;;;5.34;100.00;95391.06;5036306;28;20235;-66
2024/02/25 00:39:03;;;;;;;3.27;2.20;;;;;;;5.57;100.00;95389.38;5035721;28;20242;-68
2024/02/25 00:41:30;;;;;;;2.63;1.90;;;;;;;5.35;100.00;95384.84;5034696;28;20205;-67
2024/02/25 00:43:57;;;;;;;7.80;2.40;;;;;;;5.54;100.00;95392.34;5034590;28;20215;-65
2024/02/25 00:46:23;;;;;;;3.23;2.07;;;;;;;5.45;100.00;95390.72;5036114;28;20219;-68
2024/02/25 00:48:50;;;;;;;3.30;1.83;;;;;;;5.55;100.00;95399.19;5035167;28;20200;-67
2024/02/25 00:51:16;;;;;;;3.27;2.07;;;;;;;5.47;100.00;95393.97;5035302;28;20419;-66
2024/02/25 00:53:43;;;;;;;3.83;2.50;;;;;;;5.44;100.00;95389.88;5034907;28;20225;-67
2024/02/25 00:56:11;;;;;;;2.97;1.90;;;;;;;5.58;100.00;95388.41;5035035;28;20231;-68
2024/02/25 00:58:38;;;;;;;3.20;2.00;;;;;;;5.34;100.00;95390.25;5034651;28;20558;-67
2024/02/25 01:01:06;;;;;;;3.90;2.37;;;;;;;5.17;100.00;95388.66;5035823;28;20209;-65
2024/02/25 01:03:33;;;;;;;3.07;1.90;;;;;;;4.91;100.00;95383.59;5034793;28;20451;-68
2024/02/25 01:05:59;;;;;;;4.53;2.37;;;;;;;5.20;100.00;95383.09;5035354;28;20208;-68
2024/02/25 01:08:26;;;;;;;3.03;1.80;;;;;;;5.15;100.00;95380.97;5035659;28;20212;-67
2024/02/25 01:10:52;;;;;;;3.27;1.83;;;;;;;5.08;100.00;95385.22;5034899;28;20351;-68
2024/02/25 01:13:20;;;;;;;3.13;2.00;;;;;;;5.21;100.00;95377.69;5034632;28;20364;-66
2024/02/25 01:15:47;;;;;;;1.97;1.40;;;;;;;5.12;100.00;95381.28;5035531;28;20234;-68
2024/02/25 01:18:13;;;;;;;2.43;1.87;;;;;;;5.14;100.00;95389.78;5035804;28;20216;-65
2024/02/25 01:20:40;;;;;;;2.23;1.67;;;;;;;5.10;100.00;95392.88;5034256;28;20211;-69
2024/02/25 01:23:06;;;;;;;3.47;1.97;;;;;;;5.07;100.00;95388.00;5035042;28;20232;-68
2024/02/25 01:25:33;;;;;;;3.27;1.97;;;;;;;5.19;100.00;95384.06;5034864;28;20209;-70
2024/02/25 01:27:59;;;;;;;2.90;1.70;;;;;;;5.20;100.00;95383.09;5034871;28;20201;-67
2024/02/25 01:30:27;;;;;;;3.37;1.80;;;;;;;5.36;100.00;95377.81;5034273;28;20205;-68
2024/02/25 01:32:54;;;;;;;5.00;1.93;;;;;;;5.14;100.00;95383.75;5033823;28;20245;-68
2024/02/25 01:35:20;;;;;;;3.73;2.23;;;;;;;4.87;100.00;95377.09;5035037;28;20234;-71
2024/02/25 01:37:47;;;;;;;6.80;2.40;;;;;;;4.88;100.00;95370.84;5034514;28;20307;-68
2024/02/25 01:40:14;;;;;;;3.27;2.30;;;;;;;5.03;100.00;95365.81;5034747;28;20207;-69
2024/02/25 01:42:41;;;;;;;3.43;1.80;;;;;;;5.02;100.00;95366.78;5033322;28;20232;-68
2024/02/25 01:45:08;;;;;;;5.37;2.03;;;;;;;5.10;100.00;95359.75;5037409;28;20291;-68
2024/02/25 01:47:36;;;;;;;3.23;1.87;;;;;;;5.16;100.00;95360.91;5038520;28;20223;-68
2024/02/25 01:50:04;;;;;;;5.87;2.10;;;;;;;5.01;100.00;95367.75;5038726;28;20512;-68
2024/02/25 01:52:31;;;;;;;4.23;2.50;;;;;;;4.88;100.00;95368.25;5037143;28;20716;-68
2024/02/25 01:54:58;;;;;;;3.83;1.93;;;;;;;5.01;100.00;95362.53;5038524;28;20219;-68
2024/02/25 01:57:25;;;;;;;3.67;2.20;;;;;;;5.10;100.00;95362.34;5039599;28;20249;-68
2024/02/25 01:59:52;;;;;;;4.50;2.13;;;;;;;4.98;100.00;95358.47;5038634;28;20301;-69
2024/02/25 02:02:19;;;;;;;3.67;1.90;;;;;;;4.85;100.00;95357.34;5037819;28;20251;-67
2024/02/25 02:04:47;;;;;;;4.17;2.40;;;;;;;5.06;100.00;95355.03;5038112;28;20209;-68
2024/02/25 02:07:14;;;;;;;3.20;2.27;;;;;;;5.01;100.00;95355.50;5038406;28;20241;-67
2024/02/25 02:09:40;;;;;;;4.00;2.33;;;;;;;4.83;100.00;95359.28;5037901;28;20379;-68
2024/02/25 02:12:07;;;;;;;4.87;2.27;;;;;;;4.83;100.00;95370.53;5037967;28;20596;-67
2024/02/25 02:14:34;;;;;;;3.77;2.67;;;;;;;4.54;100.00;95369.38;5037757;28;20211;-67
2024/02/25 02:17:03;;;;;;;4.07;2.47;;;;;;;4.73;100.00;95368.28;5038368;28;20227;-65
2024/02/25 02:19:29;;;;;;;3.73;2.67;;;;;;;4.77;100.00;95361.75;5038091;28;20501;-65
2024/02/25 02:21:58;;;;;;;4.83;2.93;;;;;;;5.08;100.00;95356.50;5037520;28;20740;-68
2024/02/25 02:24:25;;;;;;;3.90;2.53;;;;;;;4.90;100.00;95349.81;5038483;28;20211;-67
2024/02/25 02:26:51;;;;;;;6.27;3.00;;;;;;;4.89;100.00;95341.19;5038152;28;20204;-65
2024/02/25 02:29:18;;;;;;;4.07;2.60;;;;;;;4.96;100.00;95342.16;5037411;28;20219;-67
2024/02/25 02:31:44;;;;;;;5.83;3.30;;;;;;;4.83;100.00;95339.22;5037579;28;20215;-67
2024/02/25 02:34:11;;;;;;;5.90;3.17;;;;;;;4.84;100.00;95337.44;5036906;28;20683;-66
2024/02/25 02:36:37;;;;;;;6.57;2.50;;;;;;;4.81;100.00;95335.13;5037396;28;20236;-69
2024/02/25 02:39:05;;;;;;;5.87;3.33;;;;;;;5.07;100.00;95330.56;5037146;28;20265;-69
2024/02/25 02:41:32;;;;;;;6.10;3.10;;;;;;;4.88;100.00;95336.94;5037832;28;20212;-69
2024/02/25 02:43:58;;;;;;;5.87;3.20;;;;;;;5.03;100.00;95350.97;5036957;28;20205;-67
2024/02/25 02:46:25;;;;;;;5.20;2.87;;;;;;;4.61;100.00;95354.72;5038000;28;20947;-64
2024/02/25 02:48:51;;;;;;;4.80;3.10;;;;;;;4.87;100.00;95353.59;5037745;28;20863;-64
2024/02/25 02:51:18;;;;;;;5.17;3.20;;;;;;;4.61;100.00;95349.50;5037539;28;20219;-67
2024/02/25 02:53:45;;;;;;;6.33;3.20;;;;;;;4.75;100.00;95354.09;5036698;28;20465;-66
2024/02/25 02:56:13;;;;;;;4.60;3.17;;;;;;;4.99;100.00;95352.28;5037044;28;20233;-66
2024/02/25 02:58:41;;;;;;;7.07;3.23;;;;;;;4.86;100.00;95346.75;5037156;28;20319;-67
2024/02/25 03:01:07;;;;;;;6.33;3.40;;;;;;;4.99;100.00;95341.00;5037412;28;20694;-65
2024/02/25 03:03:34;;;;;;;6.50;3.70;;;;;;;4.90;100.00;95345.44;5037123;28;20230;-64
2024/02/25 03:06:00;;;;;;;7.00;3.57;;;;;;;5.05;100.00;95349.00;5037023;28;20210;-67
2024/02/25 03:08:27;;;;;;;9.27;4.17;;;;;;;5.13;100.00;95342.94;5036748;28;20379;-66
2024/02/25 03:10:53;;;;;;;8.03;4.20;;;;;;;5.16;100.00;95332.97;5037952;28;20478;-66
2024/02/25 03:13:21;;;;;;;7.67;3.60;;;;;;;5.19;100.00;95337.88;5037258;28;20607;-66
2024/02/25 03:15:48;;;;;;;6.23;3.60;;;;;;;5.03;100.00;95343.13;5036510;28;20259;-66
2024/02/25 03:18:14;;;;;;;6.40;3.93;;;;;;;5.09;100.00;95339.88;5038013;28;20204;-67
2024/02/25 03:20:41;;;;;;;8.17;3.93;;;;;;;5.14;100.00;95327.13;5036547;28;20234;-67
2024/02/25 03:23:08;;;;;;;8.47;3.83;;;;;;;5.12;100.00;95329.09;5036332;28;20715;-66
2024/02/25 03:25:35;;;;;;;7.87;4.57;;;;;;;5.08;100.00;95327.78;5037166;28;20254;-67
2024/02/25 03:28:01;;;;;;;5.17;3.20;;;;;;;5.06;100.00;95334.94;5037397;28;20678;-67
2024/02/25 03:30:29;;;;;;;8.40;3.97;;;;;;;5.18;100.00;95325.81;5036024;28;20919;-67
2024/02/25 03:33:00;;;;;;;6.13;3.93;;;;;;;5.04;100.00;95330.88;5035948;28;20225;-65
2024/02/25 03:35:26;;;;;;;7.83;4.20;;;;;;;5.08;100.00;95332.19;5034267;28;20590;-66
2024/02/25 03:37:54;;;;;;;6.37;3.93;;;;;;;5.06;100.00;95328.94;5036450;28;20225;-65
2024/02/25 03:40:21;;;;;;;4.50;3.37;;;;;;;4.97;100.00;95330.72;5036772;28;20212;-64
2024/02/25 03:42:49;;;;;;;8.53;3.60;;;;;;;4.90;100.00;95329.75;5035951;28;20406;-66
2024/02/25 03:45:15;;;;;;;7.17;3.87;;;;;;;4.91;100.00;95326.19;5036956;28;20210;-66
2024/02/25 03:47:43;;;;;;;7.57;3.70;;;;;;;5.04;100.00;95329.09;5036304;28;20459;-65
2024/02/25 03:50:10;;;;;;;6.80;3.40;;;;;;;4.94;100.00;95325.84;5036503;28;20218;-66
2024/02/25 03:52:38;;;;;;;6.27;3.40;;;;;;;4.99;100.00;95328.78;5035834;28;20718;-67
2024/02/25 03:55:05;;;;;;;7.50;4.27;;;;;;;4.86;100.00;95328.47;5036350;28;20212;-66
2024/02/25 03:57:32;;;;;;;7.70;3.90;;;;;;;4.71;100.00;95329.28;5035819;28;20232;-67
2024/02/25 03:59:58;;;;;;;8.07;4.20;;;;;;;4.72;100.00;95332.72;5036303;28;20208;-66
2024/02/25 04:02:25;;;;;;;6.40;3.57;;;;;;;4.82;100.00;95333.38;5034990;28;20233;-66
2024/02/25 04:04:52;;;;;;;8.50;3.70;;;;;;;4.90;100.00;95323.72;5035472;28;20208;-67
2024/02/25 04:07:19;;;;;;;9.03;4.47;;;;;;;4.76;100.00;95323.56;5035788;28;20204;-65
2024/02/25 04:09:45;;;;;;;6.57;3.90;;;;;;;4.60;100.00;95320.97;5036412;28;20252;-65
2024/02/25 04:12:12;;;;;;;8.93;4.10;;;;;;;4.51;100.00;95314.94;5034278;28;20442;-65
2024/02/25 04:14:38;;;;;;;7.40;3.73;;;;;;;4.48;100.00;95317.88;5037283;28;21416;-64
2024/02/25 04:17:05;;;;;;;5.33;3.17;;;;;;;4.43;100.00;95314.09;5036092;28;20678;-65
2024/02/25 04:19:32;;;;;;;8.83;3.43;;;;;;;4.39;100.00;95313.63;5035905;28;20217;-66
2024/02/25 04:22:00;;;;;;;8.57;3.50;;;;;;;4.48;100.00;95317.03;5035687;28;20339;-66
2024/02/25 04:24:26;;;;;;;6.23;3.23;;;;;;;4.16;100.00;95313.59;5036993;28;20218;-66
2024/02/25 04:26:53;;;;;;;5.33;3.27;;;;;;;4.24;100.00;95314.44;5035724;28;20207;-65
2024/02/25 04:29:19;;;;;;;5.67;2.70;;;;;;;4.21;100.00;95313.94;5036271;28;20216;-66
2024/02/25 04:31:46;;;;;;;7.43;3.20;;;;;;;4.31;100.00;95312.81;5034630;28;20266;-68
2024/02/25 04:34:14;;;;;;;5.30;3.47;;;;;;;4.30;100.00;95309.41;5034505;28;20769;-66
2024/02/25 04:36:41;;;;;;;5.60;3.37;;;;;;;4.19;100.00;95315.88;5035447;28;20457;-65
2024/02/25 04:39:09;;;;;;;4.10;2.67;;;;;;;4.28;100.00;95319.16;5035731;28;20207;-64
2024/02/25 04:41:36;;;;;;;5.13;2.90;;;;;;;3.91;100.00;95314.53;5034351;28;20208;-66
2024/02/25 04:44:02;;;;;;;5.07;2.50;;;;;;;3.95;100.00;95311.44;5035110;28;20205;-65
2024/02/25 04:46:29;;;;;;;4.70;2.80;;;;;;;4.01;100.00;95313.41;5035546;28;20206;-68
2024/02/25 04:48:55;;;;;;;5.23;2.80;;;;;;;3.89;100.00;95319.88;5035454;28;20673;-65
2024/02/25 04:51:22;;;;;;;4.73;3.00;;;;;;;3.83;100.00;95322.31;5035252;28;20960;-68
2024/02/25 04:53:55;;;;;;;4.83;2.50;;;;;;;3.78;100.00;95320.19;5034347;28;20407;-67
2024/02/25 04:56:25;;;;;;;8.03;3.43;;;;;;;3.85;100.00;95315.16;5036231;28;20694;-67
2024/02/25 04:58:51;;;;;;;5.87;3.13;;;;;;;3.71;100.00;95316.56;5034956;28;20263;-67
2024/02/25 05:01:18;;;;;;;6.87;3.13;;;;;;;3.74;100.00;95300.66;5036046;28;20580;-67
2024/02/25 05:03:44;;;;;;;4.77;2.90;;;;;;;3.62;100.00;95302.91;5034591;28;20225;-67
2024/02/25 05:06:11;;;;;;;6.90;2.80;;;;;;;3.60;100.00;95313.44;5035151;28;20206;-67
2024/02/25 05:08:38;;;;;;;4.47;2.80;;;;;;;3.68;100.00;95318.69;5035022;28;20720;-67
2024/02/25 05:11:04;;;;;;;7.50;3.47;;;;;;;3.77;100.00;95310.75;5035585;28;20209;-67
2024/02/25 05:13:32;;;;;;;4.50;2.80;;;;;;;3.95;100.00;95311.44;5034126;28;20729;-67
2024/02/25 05:15:59;;;;;;;3.57;2.37;;;;;;;3.70;100.00;95314.97;5035503;28;20596;-67
2024/02/25 05:18:27;;;;;;;6.07;3.10;;;;;;;3.49;100.00;95312.91;5034576;28;20457;-67
2024/02/25 05:20:53;;;;;;;4.67;2.80;;;;;;;3.61;100.00;95322.09;5034932;28;20647;-67
2024/02/25 05:23:20;;;;;;;4.77;2.83;;;;;;;3.59;100.00;95317.03;5034359;28;20228;-67
2024/02/25 05:25:47;;;;;;;9.23;3.30;;;;;;;3.73;100.00;95313.84;5035312;28;20205;-68
2024/02/25 05:28:13;;;;;;;6.10;3.03;;;;;;;3.64;100.00;95309.56;5034858;28;21030;-68
2024/02/25 05:30:41;;;;;;;5.13;3.37;;;;;;;3.63;100.00;95303.53;5034766;28;20667;-67
2024/02/25 05:33:08;;;;;;;5.80;3.30;;;;;;;3.62;100.00;95310.72;5034230;28;20228;-67
2024/02/25 05:35:36;;;;;;;4.67;2.77;;;;;;;3.66;100.00;95307.63;5035871;28;20205;-67
2024/02/25 05:38:03;;;;;;;4.90;3.33;;;;;;;3.61;100.00;95302.06;5034514;28;20446;-68
2024/02/25 05:40:29;;;;;;;4.80;2.70;;;;;;;3.70;100.00;95307.16;5034532;28;20214;-67
2024/02/25 05:42:56;;;;;;;5.23;3.03;;;;;;;3.72;100.00;95302.59;5034185;28;20221;-67
2024/02/25 05:45:22;;;;;;;4.73;2.57;;;;;;;3.76;100.00;95303.09;5035255;28;20206;-68
2024/02/25 05:47:50;;;;;;;4.87;2.60;;;;;;;3.90;100.00;95302.47;5034859;28;20194;-67
2024/02/25 05:50:17;;;;;;;4.40;2.87;;;;;;;3.64;100.00;95309.56;5035281;28;20223;-67
2024/02/25 05:52:44;;;;;;;5.50;3.23;;;;;;;3.62;100.00;95308.09;5034643;28;20221;-67
2024/02/25 05:55:10;;;;;;;4.77;3.10;;;;;;;3.55;100.00;95318.31;5033911;28;20205;-68
2024/02/25 05:57:37;;;;;;;4.87;3.00;;;;;;;3.59;100.00;95305.78;5034250;28;20227;-68
2024/02/25 06:00:04;;;;;;;5.13;3.10;;;;;;;3.60;100.00;95308.22;5034304;28;20207;-68
2024/02/25 06:02:30;;;;;;;5.53;3.00;;;;;;;3.54;100.00;95302.84;5033335;28;20225;-68
2024/02/25 06:04:58;;;;;;;4.57;3.13;;;;;;;3.63;100.00;95305.34;5034656;28;20575;-68
2024/02/25 06:07:25;;;;;;;5.90;2.73;;;;;;;3.53;100.00;95314.25;5035567;28;20223;-68
2024/02/25 06:09:52;;;;;;;4.00;2.73;;;;;;;3.57;100.00;95307.75;5034824;28;20213;-68
2024/02/25 06:12:19;;;;;;;6.13;3.43;;;;;;;3.42;100.00;95322.34;5034482;28;20602;-68
2024/02/25 06:14:45;;;;;;;7.00;3.23;;;;;;;3.43;100.00;95322.16;5034705;28;20205;-68
2024/02/25 06:17:12;;;;;;;5.90;3.30;;;;;;;3.70;100.00;95314.97;5035008;28;20225;-68
2024/02/25 06:19:38;;;;;;;5.73;3.20;;;;;;;3.58;100.00;95317.19;5034586;28;20213;-68
2024/02/25 06:22:07;;;;;;;6.63;3.13;;;;;;;3.72;100.00;95312.19;5034434;28;20321;-66
2024/02/25 06:24:33;;;;;;;4.70;3.10;;;;;;;3.52;100.00;95325.63;5035117;28;20205;-67
2024/02/25 06:27:00;;;;;;;6.63;3.90;;;;;;;3.49;100.00;95325.94;5034556;28;20207;-67
2024/02/25 06:29:26;;;;;;;4.87;3.47;;;;;;;3.56;100.00;95325.16;5034659;28;20210;-67
2024/02/25 06:31:53;;;;;;;5.67;3.80;;;;;;;3.70;100.00;95325.38;5035474;28;20590;-67
2024/02/25 06:34:19;;;;;;;9.10;3.70;;;;;;;3.95;100.00;95311.44;5038177;28;21219;-70
2024/02/25 06:36:46;;;;;;;5.23;2.90;;;;;;;4.03;100.00;95321.88;5038334;28;20206;-68
2024/02/25 06:39:14;;;;;;;7.43;3.40;;;;;;;4.21;100.00;95319.16;5038924;28;20206;-68
2024/02/25 06:41:41;;;;;;;6.30;2.97;;;;;;;4.08;100.00;95324.03;5037103;28;20198;-68
2024/02/25 06:44:07;;;;;;;6.40;3.83;;;;;;;4.08;100.00;95329.22;5038159;28;20206;-68
2024/02/25 06:46:34;;;;;;;4.27;3.00;;;;;;;4.07;100.00;95328.41;5037901;28;20267;-70
2024/02/25 06:49:00;;;;;;;5.47;3.10;;;;;;;4.12;100.00;95331.34;5038374;28;20202;-68
2024/02/25 06:51:27;;;;;;;5.37;3.30;;;;;;;3.83;100.00;95330.97;5037007;28;21083;-70
2024/02/25 06:53:54;;;;;;;8.57;3.70;;;;;;;4.06;100.00;95336.38;5038232;28;20723;-71
2024/02/25 06:56:22;;;;;;;6.37;2.50;;;;;;;4.39;100.00;95336.28;5037519;28;20202;-68
2024/02/25 06:58:49;;;;;;;4.40;2.97;;;;;;;4.16;100.00;95331.84;5038270;28;20218;-68
2024/02/25 07:01:16;;;;;;;4.47;2.87;;;;;;;4.16;100.00;95326.63;5038129;28;20226;-70
2024/02/25 07:03:43;;;;;;;5.27;3.23;;;;;;;4.14;100.00;95318.97;5036715;28;20229;-70
2024/02/25 07:06:10;;;;;;;8.03;3.00;;;;;;;3.89;100.00;95330.31;5037451;28;20212;-68
2024/02/25 07:08:37;;;;;;;6.80;2.83;;;;;;;3.65;100.00;95330.25;5037768;28;20251;-66
2024/02/25 07:11:04;;;;;;;7.33;3.40;;;;;;;3.88;100.00;95335.69;5034590;28;20200;-67
2024/02/25 07:13:33;;;;;;;5.30;3.10;;;;;;;3.96;100.00;95330.50;5035809;28;20309;-66
2024/02/25 07:16:00;;;;;;;6.10;3.23;;;;;;;3.91;100.00;95335.38;5037139;28;20298;-67
2024/02/25 07:18:26;;;;;;;5.87;3.87;;;;;;;4.00;100.00;95334.44;5036143;28;20230;-66
2024/02/25 07:20:53;;;;;;;5.80;3.23;;;;;;;4.01;100.00;95342.09;5036300;28;20229;-67
2024/02/25 07:23:19;;;;;;;3.33;2.53;;;;;;;3.98;100.00;95334.56;5034256;28;20222;-66
2024/02/25 07:25:46;;;;;;;4.10;2.27;;;;;;;3.93;100.00;95331.63;5036347;28;20580;-66
2024/02/25 07:28:12;;;;;;;5.93;3.27;;;;;;;3.90;100.00;95331.16;5036712;28;20201;-66
2024/02/25 07:30:40;;;;;;;7.17;3.53;;;;;;;4.10;100.00;95333.31;5036022;28;20212;-66
2024/02/25 07:33:07;;;;;;;3.13;2.07;;;;;;;4.76;100.00;95326.19;5034458;28;20242;-66
2024/02/25 07:35:34;;;;;;;5.63;2.57;;;;;;;5.35;100.00;95324.78;5036101;28;20203;-67
2024/02/25 07:38:00;;;;;;;8.52;4.63;;;;;;;5.22;100.00;95326.28;5034991;28;20456;-67
2024/02/25 07:40:27;;;;;;;6.80;3.30;;;;;;;5.22;100.00;95327.09;5035563;28;20974;-67
2024/02/25 07:42:53;;;;;;;7.47;3.97;;;;;;;5.08;100.00;95321.75;5034342;28;20231;-66
2024/02/25 07:45:20;;;;;;;4.47;2.80;;;;;;;4.49;100.00;95326.50;5036812;28;20202;-67
2024/02/25 07:47:47;;;;;;;6.43;3.40;;;;;;;4.71;100.00;95328.47;5035449;28;20690;-68
2024/02/25 07:50:14;;;;;;;8.00;3.13;;;;;;;4.58;100.00;95326.38;5035666;28;20211;-67
2024/02/25 07:52:41;;;;;;;7.60;3.37;;;;;;;4.62;100.00;95324.22;5034608;28;20224;-67
2024/02/25 07:55:08;;;;;;;5.07;2.93;;;;;;;4.68;100.00;95318.38;5036775;28;20235;-68
2024/02/25 07:57:35;;;;;;;4.70;2.47;;;;;;;4.58;100.00;95322.94;5035470;28;20242;-68
2024/02/25 08:00:04;;;;;;;4.47;2.83;;;;;;;4.90;100.00;95313.28;5035025;28;20204;-69
2024/02/25 08:02:35;;;;;;;7.50;3.27;;;;;;;5.25;100.00;95312.91;5034209;28;20236;-69
2024/02/25 08:05:05;;;;;;;5.80;3.07;;;;;;;5.43;100.00;95307.31;5035660;28;20201;-68
2024/02/25 08:07:31;;;;;;;7.53;3.40;;;;;;;5.38;100.00;95314.00;5035342;28;20200;-67
2024/02/25 08:09:58;;;;;;;8.80;2.67;;;;;;;5.49;100.00;95318.88;5034840;28;20200;-68
2024/02/25 08:12:24;;;;;;;5.97;3.00;;;;;;;5.54;100.00;95304.31;5033403;28;20225;-69
2024/02/25 08:14:54;;;;;;;8.23;3.53;;;;;;;5.63;100.00;95305.09;5036148;28;20212;-69
2024/02/25 08:17:20;;;;;;;5.70;3.07;;;;;;;5.71;100.00;95308.47;5036289;28;20211;-68
2024/02/25 08:19:47;;;;;;;6.17;3.37;;;;;;;5.75;100.00;95303.72;5034463;28;20201;-69
2024/02/25 08:22:15;;;;;;;6.23;3.70;;;;;;;6.13;100.00;95295.88;5035142;28;22003;-69
2024/02/25 08:24:41;;;;;;;8.00;4.07;;;;;;;5.74;100.00;95304.72;5035038;28;20205;-68
2024/02/25 08:27:08;;;;;;;11.40;3.90;;;;;;;5.98;100.00;95302.00;5036012;28;20204;-67
2024/02/25 08:29:34;;;;;;;14.27;6.00;;;;;;;6.09;100.00;95290.16;5036043;28;20575;-66
2024/02/25 08:32:01;;;;;;;7.97;4.50;;;;;;;6.24;100.00;95291.06;5033588;28;20235;-67
2024/02/25 08:34:27;;;;;;;10.87;3.60;;;;;;;6.46;100.00;95287.63;5036070;28;20201;-67
2024/02/25 08:36:54;;;;;;;6.07;3.27;;;;;;;7.01;100.00;95288.16;5036290;28;20201;-67
2024/02/25 08:39:23;;;;;;;9.33;4.80;;;;;;;6.96;100.00;95291.31;5035666;28;20225;-67
2024/02/25 08:41:50;;;;;;;3.23;2.13;;;;;;;6.98;100.00;95291.13;5034775;28;20571;-69
2024/02/25 08:44:16;;;;;;;4.53;1.80;;;;;;;6.81;100.00;95294.84;5035390;28;20690;-69
2024/02/25 08:46:43;;;;;;;3.13;1.90;;;;;;;7.11;100.00;95288.72;5036269;28;20205;-69
2024/02/25 08:49:09;;;;;;;2.63;1.73;;;;;;;7.36;100.00;95278.59;5036275;28;20586;-69
2024/02/25 08:51:36;;;;;;;3.13;1.97;;;;;;;7.49;100.00;95283.22;5035311;28;20216;-67
2024/02/25 08:54:03;;;;;;;3.37;1.73;;;;;;;7.29;100.00;95290.81;5035152;28;20205;-67
2024/02/25 08:56:31;;;;;;;2.13;1.70;;;;;;;7.26;100.00;95283.28;5036028;28;20201;-66
2024/02/25 08:58:57;;;;;;;3.63;2.03;;;;;;;6.98;100.00;95280.66;5034989;28;20231;-67
2024/02/25 09:01:24;;;;;;;3.43;1.90;;;;;;;7.30;100.00;95276.69;5035993;28;20303;-65
2024/02/25 09:03:50;;;;;;;3.00;1.63;;;;;;;7.53;100.00;95277.41;5034918;28;20217;-65
2024/02/25 09:06:17;;;;;;;2.43;1.40;;;;;;;7.96;100.00;95271.31;5035587;28;20201;-66
2024/02/25 09:08:43;;;;;;;2.60;1.30;;;;;;;8.00;100.00;95265.50;5035449;28;20201;-66
2024/02/25 09:11:11;;;;;;;2.57;2.00;;;;;;;8.31;100.00;95270.50;5033620;28;20201;-67
2024/02/25 09:13:38;;;;;;;7.73;1.70;;;;;;;8.39;100.00;95263.34;5033622;28;20264;-66
2024/02/25 09:16:05;;;;;;;3.00;1.63;;;;;;;8.45;100.00;95267.03;5036210;28;20209;-68
2024/02/25 09:18:33;;;;;;;1.43;1.27;;;;;;;8.90;100.00;95264.81;5035160;28;20221;-69
2024/02/25 09:20:59;;;;;;;5.77;1.87;;;;;;;8.83;100.00;95264.72;5035027;28;20205;-68
2024/02/25 09:23:26;;;;;;;3.47;1.80;;;;;;;8.73;100.00;95266.91;5034115;28;20221;-67
2024/02/25 09:25:52;;;;;;;2.10;1.40;;;;;;;8.90;100.00;95267.44;5033515;28;20199;-67
2024/02/25 09:28:21;;;;;;;1.43;1.20;;;;;;;8.60;100.00;95266.78;5034896;28;20643;-70
2024/02/25 09:30:50;;;;;;;2.90;1.27;;;;;;;8.56;100.00;95265.50;5035217;28;20291;-71
2024/02/25 09:33:17;;;;;;;1.47;1.00;;;;;;;8.41;100.00;95266.56;5034603;28;20322;-70
2024/02/25 09:35:43;;;;;;;1.53;1.37;;;;;;;8.39;100.00;95273.00;5034584;28;20711;-69
2024/02/25 09:38:10;;;;;;;2.43;1.37;;;;;;;8.57;100.00;95261.09;5035660;28;20322;-67
2024/02/25 09:40:36;;;;;;;2.17;1.30;;;;;;;8.65;100.00;95253.06;5034743;28;20201;-69
2024/02/25 09:43:03;;;;;;;3.93;1.63;;;;;;;8.69;100.00;95249.91;5033988;28;20220;-70
2024/02/25 09:45:33;;;;;;;2.00;1.30;;;;;;;9.16;100.00;95244.78;5035147;28;20243;-68
2024/02/25 09:48:01;;;;;;;2.70;1.57;;;;;;;9.20;100.00;95241.59;5035370;28;21146;-68
2024/02/25 09:50:29;;;;;;;4.07;1.70;;;;;;;9.50;100.00;95239.53;5034723;28;20213;-69
2024/02/25 09:52:56;;;;;;;3.70;1.37;;;;;;;9.16;100.00;95247.41;5032648;28;20225;-70
2024/02/25 09:55:22;;;;;;;3.40;2.50;;;;;;;9.11;100.00;95234.03;5034450;28;20207;-71
2024/02/25 09:57:50;;;;;;;6.67;3.00;;;;;;;9.15;100.00;95227.38;5034906;28;20197;-70
2024/02/25 10:00:17;;;;;;;5.17;3.23;;;;;;;9.50;100.00;95219.31;5035416;28;21015;-68
2024/02/25 10:02:45;;;;;;;5.73;3.30;;;;;;;9.15;100.00;95214.25;5033818;28;20221;-72
2024/02/25 10:05:15;;;;;;;3.87;2.83;;;;;;;9.05;100.00;95211.16;5035434;28;20291;-69
2024/02/25 10:07:42;;;;;;;4.47;2.80;;;;;;;8.95;100.00;95215.94;5038808;28;20579;-69
2024/02/25 10:10:12;;;;;;;4.10;2.70;;;;;;;9.26;100.00;95208.47;5038620;28;20209;-69
2024/02/25 10:12:40;;;;;;;3.70;2.70;;;;;;;9.55;100.00;95214.28;5038532;28;20706;-69
2024/02/25 10:15:10;;;;;;;4.47;2.63;;;;;;;9.57;100.00;95214.06;5038646;28;20213;-71
2024/02/25 10:17:37;;;;;;;2.83;2.03;;;;;;;9.57;100.00;95227.22;5039182;28;20211;-72
2024/02/25 10:20:11;;;;;;;3.13;2.20;;;;;;;9.55;100.00;95221.38;5038444;28;20235;-72
2024/02/25 10:22:39;;;;;;;4.87;2.03;;;;;;;10.17;100.00;95212.28;5038027;28;20248;-72
2024/02/25 10:25:08;;;;;;;3.07;2.00;;;;;;;10.38;97.73;95205.84;5038369;28;20220;-69
2024/02/25 10:27:34;;;;;;;2.63;1.60;;;;;;;10.45;98.96;95201.41;5038421;28;20909;-70
2024/02/25 10:30:05;;;;;;;3.00;1.57;;;;;;;10.37;93.17;95191.09;5038344;28;20207;-69
2024/02/25 10:32:36;;;;;;;3.80;1.80;;;;;;;10.90;96.41;95184.81;5038073;28;20307;-71
2024/02/25 10:35:04;;;;;;;2.23;1.47;;;;;;;10.62;93.40;95191.31;5038596;28;20224;-70
2024/02/25 10:37:31;;;;;;;3.00;1.80;;;;;;;11.06;95.00;95185.19;5038874;28;20201;-72
2024/02/25 10:40:04;;;;;;;2.70;1.77;;;;;;;10.99;95.19;95176.47;5037222;28;20274;-72
2024/02/25 10:42:33;;;;;;;3.00;1.97;;;;;;;11.18;93.51;95180.91;5037222;28;20217;-69
2024/02/25 10:45:01;;;;;;;3.53;1.90;;;;;;;11.22;92.57;95168.13;5037969;28;20824;-71
2024/02/25 10:47:28;;;;;;;1.47;1.27;;;;;;;11.00;95.92;95170.19;5037017;28;20198;-71
2024/02/25 10:49:56;;;;;;;2.57;1.70;;;;;;;10.72;93.92;95175.91;5036308;28;20197;-71
2024/02/25 10:52:25;;;;;;;2.67;1.50;;;;;;;11.07;94.75;95167.53;5036354;28;20218;-73
2024/02/25 10:54:53;;;;;;;13.37;4.27;;;;;;;11.36;97.36;95159.16;5037900;28;20197;-68
2024/02/25 10:57:21;;;;;;;3.00;1.40;;;;;;;11.24;92.95;95159.00;5037841;28;20213;-70
2024/02/25 10:59:48;;;;;;;1.83;1.40;;;;;;;11.56;90.77;95166.03;5036848;28;20224;-70
2024/02/25 11:02:17;;;;;;;2.73;1.20;;;;;;;11.84;86.33;95153.34;5037137;28;20290;-70
2024/02/25 11:04:45;;;;;;;1.97;1.40;;;;;;;11.44;87.91;95146.53;5037423;28;20201;-70
2024/02/25 11:07:11;;;;;;;1.73;1.37;;;;;;;11.90;86.05;95141.91;5037456;28;20231;-70
2024/02/25 11:09:38;;;;;;;1.30;1.00;;;;;;;11.87;85.89;95135.22;5037063;28;20227;-71
2024/02/25 11:12:15;;;;;;;1.43;1.17;;;;;;;11.87;88.29;95134.44;5036304;28;20229;-71
2024/02/25 11:14:49;;;;;;;1.37;1.10;;;;;;;12.13;88.46;95123.69;5036834;28;20200;-71
2024/02/25 11:17:18;;;;;;;1.60;1.10;;;;;;;11.75;89.82;95118.44;5036273;28;20209;-71
2024/02/25 11:19:57;;;;;;;2.30;1.20;;;;;;;12.02;87.34;95119.13;5035756;28;20217;-71
2024/02/25 11:22:38;;;;;;;2.67;1.40;;;;;;;11.81;86.78;95120.25;5034829;28;20233;-69
2024/02/25 11:25:06;;;;;;;2.83;1.20;;;;;;;11.62;87.67;95117.69;5036282;28;20205;-67
2024/02/25 11:27:57;;;;;;;1.67;1.30;;;;;;;11.57;86.93;95110.41;5035857;28;20206;-69
2024/02/25 11:30:34;;;;;;;3.13;1.37;;;;;;;11.81;86.00;95107.06;5037370;28;20213;-69
2024/02/25 11:33:01;;;;;;;1.13;1.00;;;;;;;11.71;88.20;95108.50;5036695;28;20597;-71
2024/02/25 11:35:30;;;;;;;1.87;1.23;;;;;;;12.12;85.57;95103.59;5037359;28;20198;-68